Time;durP1;ratioP1;P1;durP2;ratioP2;P2;SDS_P1;SDS_P2;PMS_P1;PMS_P2;Temp;Humidity;BMP_temperature;BMP_pressure;BME280_temperature;BME280_humidity;BME280_pressure;Samples;Min_cycle;Max_cycle;Signal;HPM_P1;HPM_P2
2021/06/16 00:00:38;;;;;;;4.00;2.83;;;21.70;80.80;;;;;;5033581;28;20541;-73
2021/06/16 00:03:05;;;;;;;4.07;3.53;;;21.70;80.90;;;;;;5036849;28;20482;-77
2021/06/16 00:05:32;;;;;;;4.00;3.23;;;21.70;81.40;;;;;;5037863;28;20955;-77
2021/06/16 00:08:00;;;;;;;4.80;3.50;;;21.60;81.30;;;;;;5034714;28;20541;-77
2021/06/16 00:10:30;;;;;;;4.33;3.37;;;21.60;81.60;;;;;;5033226;28;20449;-77
2021/06/16 00:12:58;;;;;;;4.37;3.37;;;21.60;82.10;;;;;;5034001;28;20778;-76
2021/06/16 00:15:27;;;;;;;4.13;3.57;;;21.60;82.30;;;;;;5034334;28;20485;-76
2021/06/16 00:17:54;;;;;;;4.27;3.10;;;21.50;82.50;;;;;;5033381;28;20457;-77
2021/06/16 00:20:21;;;;;;;3.33;3.00;;;21.50;82.20;;;;;;5034023;28;20541;-76
2021/06/16 00:22:48;;;;;;;3.77;2.93;;;21.50;82.40;;;;;;5032696;28;20540;-76
2021/06/16 00:25:15;;;;;;;3.53;3.23;;;21.50;83.90;;;;;;5032670;28;20474;-77
2021/06/16 00:27:43;;;;;;;4.13;3.20;;;21.60;85.00;;;;;;5032717;28;20460;-77
2021/06/16 00:30:12;;;;;;;3.50;3.20;;;21.50;85.20;;;;;;5030598;28;20454;-77
2021/06/16 00:32:41;;;;;;;4.73;3.37;;;21.50;85.00;;;;;;5022535;28;20491;-76
2021/06/16 00:35:08;;;;;;;5.13;4.10;;;21.50;86.20;;;;;;5020006;28;20462;-77
2021/06/16 00:37:35;;;;;;;4.53;4.13;;;21.60;85.80;;;;;;5021658;28;20906;-76
2021/06/16 00:40:03;;;;;;;4.27;3.60;;;21.50;86.30;;;;;;5022113;28;20462;-77
2021/06/16 00:42:33;;;;;;;4.57;3.60;;;21.50;86.80;;;;;;5020415;28;20787;-76
2021/06/16 00:45:01;;;;;;;4.20;3.70;;;21.40;86.60;;;;;;5020396;28;20477;-77
2021/06/16 00:47:28;;;;;;;4.13;3.73;;;21.40;87.20;;;;;;5022352;28;20533;-76
2021/06/16 00:49:55;;;;;;;7.30;3.30;;;21.40;88.10;;;;;;5030776;28;20493;-76
2021/06/16 00:52:22;;;;;;;7.43;4.33;;;21.40;88.40;;;;;;5033201;28;20453;-75
2021/06/16 00:54:49;;;;;;;6.30;3.77;;;21.30;89.00;;;;;;5037529;28;20994;-74
2021/06/16 00:57:16;;;;;;;5.30;3.90;;;21.30;88.60;;;;;;5036874;28;20575;-74
2021/06/16 00:59:52;;;;;;;5.30;3.70;;;21.30;88.90;;;;;;5035957;28;20455;-77
2021/06/16 01:02:21;;;;;;;4.30;3.70;;;21.20;89.40;;;;;;5042095;28;20514;-77
2021/06/16 01:04:50;;;;;;;5.07;3.83;;;21.00;90.20;;;;;;5040902;28;20500;-78
2021/06/16 01:07:17;;;;;;;4.97;3.37;;;20.80;90.70;;;;;;5039201;28;20533;-77
2021/06/16 01:09:51;;;;;;;4.43;3.30;;;20.80;91.20;;;;;;5036617;28;20875;-77
2021/06/16 01:12:22;;;;;;;3.57;3.27;;;20.90;91.40;;;;;;5037708;28;20450;-77
2021/06/16 01:14:52;;;;;;;3.90;3.50;;;20.90;92.10;;;;;;5038093;28;20528;-77
2021/06/16 01:17:22;;;;;;;3.97;3.57;;;21.00;92.00;;;;;;5037201;28;21046;-77
2021/06/16 01:20:21;;;;;;;4.70;3.47;;;20.90;92.10;;;;;;5037547;28;20535;-77
2021/06/16 01:23:04;;;;;;;6.23;3.20;;;20.90;92.40;;;;;;5034067;28;20481;-77
2021/06/16 01:25:38;;;;;;;4.53;3.20;;;20.90;92.60;;;;;;5035633;28;20541;-77
2021/06/16 01:28:08;;;;;;;4.13;3.50;;;21.00;92.90;;;;;;5035777;28;20540;-77
2021/06/16 01:30:36;;;;;;;4.93;4.00;;;20.90;92.90;;;;;;5035392;28;20448;-77
2021/06/16 01:33:05;;;;;;;4.67;3.70;;;20.90;93.20;;;;;;5035729;28;20533;-77
2021/06/16 01:35:32;;;;;;;4.50;3.80;;;20.90;92.90;;;;;;5035738;28;20543;-77
2021/06/16 01:38:00;;;;;;;4.10;3.70;;;20.90;93.30;;;;;;5035286;28;20493;-77
2021/06/16 01:40:29;;;;;;;4.17;3.37;;;20.90;93.60;;;;;;5035972;28;20886;-77
2021/06/16 01:42:59;;;;;;;3.47;3.17;;;20.80;94.20;;;;;;5035342;28;20552;-77
2021/06/16 01:45:29;;;;;;;3.03;2.77;;;20.80;94.30;;;;;;5036560;28;20468;-78
2021/06/16 01:47:59;;;;;;;3.70;3.37;;;20.80;94.60;;;;;;5039069;28;20529;-76
2021/06/16 01:50:27;;;;;;;3.90;3.60;;;20.70;95.00;;;;;;5034863;28;20499;-77
2021/06/16 01:52:58;;;;;;;5.73;3.77;;;20.70;95.30;;;;;;5034705;28;20455;-76
2021/06/16 01:55:26;;;;;;;3.70;3.10;;;20.70;95.50;;;;;;5035030;28;20453;-77
2021/06/16 01:57:57;;;;;;;3.90;3.60;;;20.70;95.30;;;;;;5034966;28;20496;-76
2021/06/16 02:00:25;;;;;;;4.70;3.67;;;20.60;95.60;;;;;;5035362;28;20535;-77
2021/06/16 02:02:53;;;;;;;3.97;3.33;;;20.60;95.70;;;;;;5034762;28;20456;-77
2021/06/16 02:05:21;;;;;;;4.20;3.47;;;20.60;96.20;;;;;;5033644;28;20901;-77
2021/06/16 02:07:55;;;;;;;5.43;3.97;;;20.50;96.40;;;;;;5035210;28;20480;-79
2021/06/16 02:10:26;;;;;;;4.27;3.50;;;20.50;96.50;;;;;;5035847;28;20537;-77
2021/06/16 02:12:57;;;;;;;4.07;2.90;;;20.60;96.50;;;;;;5036825;28;20520;-77
2021/06/16 02:15:28;;;;;;;5.23;3.30;;;20.50;96.80;;;;;;5037484;28;20473;-77
2021/06/16 02:18:00;;;;;;;4.10;3.37;;;20.50;96.60;;;;;;5036370;28;20493;-77
2021/06/16 02:20:28;;;;;;;3.67;3.23;;;20.50;96.90;;;;;;5034275;28;20454;-76
2021/06/16 02:22:55;;;;;;;3.70;3.03;;;20.40;97.30;;;;;;5034434;28;20883;-77
2021/06/16 02:25:23;;;;;;;5.70;3.63;;;20.40;97.10;;;;;;5035069;28;20888;-75
2021/06/16 02:27:50;;;;;;;4.17;3.00;;;20.30;97.30;;;;;;5034418;28;20811;-75
2021/06/16 02:30:18;;;;;;;6.53;3.60;;;20.10;98.00;;;;;;5034193;28;20456;-77
2021/06/16 02:32:46;;;;;;;4.03;3.17;;;20.00;98.30;;;;;;5034104;28;20546;-74
2021/06/16 02:35:16;;;;;;;3.90;3.50;;;20.10;98.90;;;;;;5033976;28;20448;-76
2021/06/16 02:37:50;;;;;;;4.55;3.50;;;20.20;99.10;;;;;;5033945;28;20488;-76
2021/06/16 02:40:20;;;;;;;3.83;3.43;;;20.20;99.10;;;;;;5033819;28;20207;-76
2021/06/16 02:42:50;;;;;;;4.18;3.40;;;20.10;99.20;;;;;;5034232;28;20881;-74
2021/06/16 02:45:23;;;;;;;5.97;3.57;;;20.20;99.20;;;;;;5033918;28;20698;-76
2021/06/16 02:47:52;;;;;;;6.30;3.85;;;20.20;99.50;;;;;;5033925;28;20998;-76
2021/06/16 02:50:24;;;;;;;4.27;3.20;;;20.20;99.60;;;;;;5033843;28;20237;-76
2021/06/16 02:52:53;;;;;;;6.47;3.08;;;20.30;99.70;;;;;;5035375;28;20869;-75
2021/06/16 02:55:23;;;;;;;6.03;3.80;;;20.20;99.70;;;;;;5036525;28;20659;-74
2021/06/16 02:57:52;;;;;;;3.30;3.00;;;20.20;99.80;;;;;;5036794;28;20899;-74
2021/06/16 03:00:21;;;;;;;4.67;3.47;;;20.20;99.80;;;;;;5035724;28;20450;-73
2021/06/16 03:02:49;;;;;;;4.00;3.60;;;20.20;99.70;;;;;;5036338;28;20488;-74
2021/06/16 03:05:22;;;;;;;2.97;2.67;;;20.20;99.90;;;;;;5036133;28;20456;-73
2021/06/16 03:07:50;;;;;;;3.33;3.03;;;20.20;99.50;;;;;;5035201;28;20451;-74
2021/06/16 03:10:18;;;;;;;4.77;3.20;;;20.20;99.70;;;;;;5035245;28;20540;-73
2021/06/16 03:12:47;;;;;;;4.30;3.37;;;20.20;99.50;;;;;;5035930;28;20458;-74
2021/06/16 03:15:15;;;;;;;4.27;3.20;;;19.90;99.90;;;;;;5035249;28;20455;-74
2021/06/16 03:17:46;;;;;;;4.00;3.47;;;19.80;99.90;;;;;;5035368;28;20846;-74
2021/06/16 03:20:15;;;;;;;4.73;3.53;;;19.90;99.90;;;;;;5035551;28;20523;-72
2021/06/16 03:22:45;;;;;;;3.35;3.03;;;19.90;99.90;;;;;;5035649;28;20859;-74
2021/06/16 03:25:14;;;;;;;4.30;3.50;;;19.90;99.90;;;;;;5035382;28;20317;-74
2021/06/16 03:27:42;;;;;;;3.63;3.23;;;19.90;99.90;;;;;;5035739;28;20527;-74
2021/06/16 03:30:10;;;;;;;8.07;3.50;;;19.90;99.90;;;;;;5035275;28;20552;-73
2021/06/16 03:32:38;;;;;;;3.43;2.60;;;20.00;99.90;;;;;;5035495;28;20546;-73
2021/06/16 03:35:06;;;;;;;5.30;3.50;;;19.90;99.90;;;;;;5034951;28;21008;-74
2021/06/16 03:37:34;;;;;;;3.80;3.40;;;20.00;99.90;;;;;;5035417;28;20523;-73
2021/06/16 03:40:04;;;;;;;4.83;3.87;;;20.00;99.90;;;;;;5034949;28;20447;-73
2021/06/16 03:42:34;;;;;;;3.60;3.30;;;20.00;99.90;;;;;;5034967;28;20444;-74
2021/06/16 03:45:04;;;;;;;4.03;3.53;;;20.00;99.90;;;;;;5034925;28;20508;-73
2021/06/16 03:47:32;;;;;;;8.40;3.43;;;20.00;99.90;;;;;;5034967;28;20519;-74
2021/06/16 03:50:00;;;;;;;4.43;3.33;;;20.00;99.90;;;;;;5034395;28;20449;-73
2021/06/16 03:52:28;;;;;;;4.30;3.17;;;20.00;99.90;;;;;;5034544;28;20451;-73
2021/06/16 03:54:56;;;;;;;4.80;3.27;;;20.00;99.90;;;;;;5034860;28;20468;-73
2021/06/16 03:57:25;;;;;;;3.33;3.03;;;20.00;99.90;;;;;;5034764;28;20487;-73
2021/06/16 03:59:52;;;;;;;5.40;3.20;;;19.90;99.90;;;;;;5034366;28;20449;-73
2021/06/16 04:02:20;;;;;;;3.90;3.43;;;20.00;99.90;;;;;;5035107;28;20799;-74
2021/06/16 04:04:47;;;;;;;3.30;2.90;;;20.00;99.90;;;;;;5034759;28;20471;-74
2021/06/16 04:07:16;;;;;;;2.87;2.67;;;20.00;99.90;;;;;;5035150;28;20522;-74
2021/06/16 04:09:44;;;;;;;4.67;3.30;;;20.00;99.90;;;;;;5035164;28;20847;-73
2021/06/16 04:12:11;;;;;;;4.10;3.40;;;20.00;99.90;;;;;;5034264;28;20544;-73
2021/06/16 04:14:40;;;;;;;4.70;3.63;;;20.10;99.90;;;;;;5034577;28;20560;-73
2021/06/16 04:17:08;;;;;;;3.90;3.27;;;20.00;99.90;;;;;;5035037;28;20484;-73
2021/06/16 04:19:34;;;;;;;3.50;2.90;;;20.00;99.90;;;;;;5034966;28;20452;-73
2021/06/16 04:22:01;;;;;;;3.60;3.30;;;20.00;99.90;;;;;;5034535;28;20481;-73
2021/06/16 04:24:28;;;;;;;5.00;3.27;;;19.90;99.90;;;;;;5034314;28;20471;-74
2021/06/16 04:26:55;;;;;;;3.47;3.15;;;19.90;99.90;;;;;;5035532;28;20506;-74
2021/06/16 04:29:22;;;;;;;4.77;3.30;;;19.90;99.90;;;;;;5038718;28;20833;-73
2021/06/16 04:31:50;;;;;;;3.90;3.50;;;19.80;99.90;;;;;;5038656;28;20469;-73
2021/06/16 04:34:17;;;;;;;4.73;3.90;;;19.80;99.90;;;;;;5038449;28;20478;-73
2021/06/16 04:36:44;;;;;;;4.73;3.43;;;19.90;99.90;;;;;;5038301;28;20451;-74
2021/06/16 04:39:11;;;;;;;3.90;3.50;;;20.00;99.90;;;;;;5038989;28;20539;-73
2021/06/16 04:41:37;;;;;;;4.23;3.17;;;20.10;99.90;;;;;;5038472;28;20555;-73
2021/06/16 04:44:05;;;;;;;4.30;3.90;;;20.10;99.90;;;;;;5038535;28;20463;-73
2021/06/16 04:46:32;;;;;;;4.00;3.60;;;20.20;99.90;;;;;;5038138;28;20534;-73
2021/06/16 04:49:01;;;;;;;4.53;4.13;;;20.30;99.90;;;;;;5038222;28;20532;-73
2021/06/16 04:51:28;;;;;;;6.47;4.00;;;20.30;99.90;;;;;;5037753;28;20605;-73
2021/06/16 04:53:55;;;;;;;4.87;3.83;;;20.30;99.90;;;;;;5037967;28;20866;-74
2021/06/16 04:56:22;;;;;;;4.50;3.80;;;20.40;99.90;;;;;;5038074;28;20536;-74
2021/06/16 04:58:49;;;;;;;7.37;4.37;;;20.40;99.90;;;;;;5037895;28;20571;-73
2021/06/16 05:01:15;;;;;;;5.23;3.80;;;20.40;99.90;;;;;;5037824;28;20981;-73
2021/06/16 05:03:42;;;;;;;4.93;3.90;;;20.30;99.90;;;;;;5037916;28;20504;-74
2021/06/16 05:06:10;;;;;;;5.20;4.00;;;20.30;99.90;;;;;;5038264;28;20456;-74
2021/06/16 05:08:37;;;;;;;5.10;4.43;;;20.30;99.90;;;;;;5037468;28;20943;-73
2021/06/16 05:11:04;;;;;;;6.57;4.63;;;20.20;99.90;;;;;;5037635;28;20524;-73
2021/06/16 05:13:31;;;;;;;5.50;4.20;;;20.00;99.90;;;;;;5037396;28;20553;-74
2021/06/16 05:15:58;;;;;;;6.00;4.28;;;19.80;99.90;;;;;;5037746;28;20539;-73
2021/06/16 05:18:26;;;;;;;5.03;4.32;;;19.70;99.90;;;;;;5037718;28;20227;-74
2021/06/16 05:20:53;;;;;;;5.17;3.50;;;19.80;99.90;;;;;;5037522;28;20662;-73
2021/06/16 05:23:26;;;;;;;4.37;3.93;;;19.80;99.90;;;;;;5037016;28;20998;-73
2021/06/16 05:25:53;;;;;;;4.47;4.07;;;20.00;99.90;;;;;;5037348;28;20436;-74
2021/06/16 05:28:20;;;;;;;5.47;3.70;;;20.00;99.90;;;;;;5037089;28;20486;-74
2021/06/16 05:30:47;;;;;;;4.77;3.70;;;20.10;99.90;;;;;;5037089;28;20818;-73
2021/06/16 05:33:13;;;;;;;5.30;4.00;;;20.10;99.90;;;;;;5037694;28;20556;-74
2021/06/16 05:35:40;;;;;;;4.70;4.03;;;20.10;99.90;;;;;;5037339;28;20982;-73
2021/06/16 05:38:08;;;;;;;5.83;4.30;;;20.20;99.90;;;;;;5019403;28;20473;-74
2021/06/16 05:40:37;;;;;;;5.73;4.33;;;20.20;99.90;;;;;;5037300;28;20453;-73
2021/06/16 05:43:04;;;;;;;5.03;3.97;;;20.20;99.90;;;;;;5037015;28;20544;-73
2021/06/16 05:45:31;;;;;;;5.00;4.00;;;20.10;99.90;;;;;;5037977;28;20447;-73
2021/06/16 05:47:58;;;;;;;6.20;4.30;;;20.10;99.90;;;;;;5037532;28;20444;-73
2021/06/16 05:50:25;;;;;;;6.60;4.43;;;20.00;99.90;;;;;;5036981;28;20444;-73
2021/06/16 05:52:51;;;;;;;4.47;4.00;;;20.10;99.90;;;;;;5037231;28;20450;-73
2021/06/16 05:55:18;;;;;;;4.53;3.77;;;20.20;99.90;;;;;;5037703;28;20563;-74
2021/06/16 05:57:46;;;;;;;4.70;3.50;;;20.30;99.90;;;;;;5037469;28;20486;-73
2021/06/16 06:00:14;;;;;;;4.30;3.90;;;20.40;99.90;;;;;;5037296;28;20456;-73
2021/06/16 06:02:42;;;;;;;10.97;4.23;;;20.50;99.90;;;;;;5037105;28;20458;-74
2021/06/16 06:05:10;;;;;;;4.30;3.90;;;20.70;99.90;;;;;;5036752;28;20465;-74
2021/06/16 06:07:37;;;;;;;6.67;4.23;;;20.90;99.90;;;;;;5037032;28;20535;-73
2021/06/16 06:10:05;;;;;;;4.70;4.20;;;20.90;99.90;;;;;;5036727;28;20442;-73
2021/06/16 06:12:32;;;;;;;4.23;3.67;;;20.90;99.90;;;;;;5036920;28;20540;-74
2021/06/16 06:15:00;;;;;;;5.10;4.10;;;21.00;99.90;;;;;;5037172;28;20466;-74
2021/06/16 06:17:27;;;;;;;4.33;3.40;;;21.10;99.90;;;;;;5036151;28;20499;-73
2021/06/16 06:19:54;;;;;;;4.13;3.73;;;21.00;99.90;;;;;;5036077;28;20450;-73
2021/06/16 06:22:21;;;;;;;4.83;3.87;;;21.00;99.90;;;;;;5036648;28;20865;-74
2021/06/16 06:24:47;;;;;;;5.90;3.90;;;21.00;99.90;;;;;;5037095;28;20552;-74
2021/06/16 06:27:14;;;;;;;4.67;3.33;;;21.10;99.90;;;;;;5036424;28;20828;-74
2021/06/16 06:29:41;;;;;;;4.63;4.23;;;21.10;99.90;;;;;;5037285;28;20537;-74
2021/06/16 06:32:09;;;;;;;5.30;4.67;;;21.20;99.90;;;;;;5036037;28;20948;-74
2021/06/16 06:34:36;;;;;;;5.13;4.63;;;21.30;99.90;;;;;;5035587;28;20477;-73
2021/06/16 06:37:04;;;;;;;4.50;3.60;;;21.30;99.90;;;;;;5036104;28;20442;-74
2021/06/16 06:39:30;;;;;;;6.53;4.30;;;21.40;99.90;;;;;;5035927;28;20497;-73
2021/06/16 06:41:57;;;;;;;8.17;4.70;;;21.50;99.90;;;;;;5036171;28;20500;-73
2021/06/16 06:44:24;;;;;;;7.50;4.30;;;21.60;99.90;;;;;;5035517;28;20557;-73
2021/06/16 06:46:51;;;;;;;6.37;5.30;;;21.80;99.90;;;;;;5035643;28;20538;-74
2021/06/16 06:49:19;;;;;;;4.37;3.87;;;22.00;99.90;;;;;;5036027;28;20891;-74
2021/06/16 06:51:46;;;;;;;6.80;4.77;;;22.10;99.90;;;;;;5035728;28;20533;-73
2021/06/16 06:54:13;;;;;;;9.37;4.80;;;22.30;99.90;;;;;;5035339;28;20549;-74
2021/06/16 06:56:40;;;;;;;6.47;4.43;;;22.40;99.90;;;;;;5036172;28;20453;-74
2021/06/16 06:59:07;;;;;;;8.10;4.67;;;22.60;99.40;;;;;;5035544;28;20855;-74
2021/06/16 07:01:34;;;;;;;5.03;4.13;;;22.70;99.50;;;;;;5035157;28;20533;-73
2021/06/16 07:04:01;;;;;;;5.40;4.77;;;22.90;99.00;;;;;;5034753;28;21081;-74
2021/06/16 07:06:30;;;;;;;4.10;3.70;;;23.00;99.10;;;;;;5035177;28;20790;-74
2021/06/16 07:08:57;;;;;;;5.93;4.33;;;23.10;98.80;;;;;;5035572;28;20438;-74
2021/06/16 07:11:24;;;;;;;5.70;4.50;;;23.20;98.70;;;;;;5035174;28;20491;-73
2021/06/16 07:13:51;;;;;;;4.30;3.90;;;23.40;98.70;;;;;;5035127;28;20469;-74
2021/06/16 07:16:18;;;;;;;5.63;5.10;;;23.50;98.30;;;;;;5035229;28;20557;-74
2021/06/16 07:18:46;;;;;;;4.90;3.80;;;23.60;97.60;;;;;;5035264;28;20513;-74
2021/06/16 07:21:13;;;;;;;5.70;4.93;;;23.70;96.90;;;;;;5035100;28;20965;-73
2021/06/16 07:23:41;;;;;;;4.47;4.07;;;23.80;96.80;;;;;;5035181;28;20555;-73
2021/06/16 07:26:08;;;;;;;6.00;5.40;;;24.00;96.60;;;;;;5034892;28;20527;-74
2021/06/16 07:28:35;;;;;;;5.93;4.80;;;24.10;96.10;;;;;;5034970;28;20450;-74
2021/06/16 07:31:02;;;;;;;4.93;4.10;;;24.20;95.70;;;;;;5035495;28;20460;-74
2021/06/16 07:33:31;;;;;;;6.03;4.20;;;24.30;95.60;;;;;;5035515;28;20472;-74
2021/06/16 07:35:57;;;;;;;6.47;5.63;;;24.40;94.90;;;;;;5035764;28;20453;-74
2021/06/16 07:38:24;;;;;;;6.70;4.57;;;24.40;94.80;;;;;;5035361;28;20566;-74
2021/06/16 07:40:52;;;;;;;6.50;4.53;;;24.40;94.40;;;;;;5034947;28;20465;-73
2021/06/16 07:43:19;;;;;;;6.32;5.00;;;24.40;94.70;;;;;;5035953;28;20445;-77
2021/06/16 07:45:46;;;;;;;6.05;4.72;;;24.50;95.10;;;;;;5039892;28;20445;-77
2021/06/16 07:48:13;;;;;;;5.75;4.28;;;24.70;93.90;;;;;;5035082;28;20536;-78
2021/06/16 07:50:42;;;;;;;5.65;4.72;;;25.00;93.10;;;;;;5034885;28;20975;-76
2021/06/16 07:53:09;;;;;;;5.07;4.40;;;25.40;92.40;;;;;;5034952;28;20951;-79
2021/06/16 07:55:38;;;;;;;4.53;4.13;;;25.90;91.10;;;;;;5030686;28;20850;-76
2021/06/16 07:58:07;;;;;;;5.27;4.77;;;26.40;90.30;;;;;;5055961;28;20673;-75
2021/06/16 08:00:34;;;;;;;4.00;3.63;;;26.60;91.40;;;;;;5052530;28;20484;-76
2021/06/16 08:03:01;;;;;;;4.60;3.60;;;26.90;89.10;;;;;;5051679;28;20785;-77
2021/06/16 08:05:29;;;;;;;5.70;4.43;;;27.10;87.40;;;;;;5052093;28;20478;-76
2021/06/16 08:07:56;;;;;;;4.93;4.00;;;27.30;87.20;;;;;;5051954;28;20454;-76
2021/06/16 08:10:24;;;;;;;4.67;4.03;;;27.30;86.40;;;;;;5051968;28;21046;-76
2021/06/16 08:12:50;;;;;;;4.43;4.03;;;27.30;85.70;;;;;;5052266;28;20537;-77
2021/06/16 08:15:19;;;;;;;5.33;3.60;;;27.30;84.10;;;;;;5052246;28;20876;-75
2021/06/16 08:17:46;;;;;;;6.23;4.13;;;27.60;87.00;;;;;;5052252;28;20932;-76
2021/06/16 08:20:13;;;;;;;4.50;4.10;;;27.70;82.30;;;;;;5053810;28;20486;-75
2021/06/16 08:22:40;;;;;;;4.87;4.07;;;27.80;79.80;;;;;;5053573;28;20434;-76
2021/06/16 08:25:11;;;;;;;4.43;4.00;;;28.00;78.00;;;;;;5053695;28;20492;-76
2021/06/16 08:27:38;;;;;;;6.13;4.33;;;28.20;77.60;;;;;;5053572;28;20588;-76
2021/06/16 08:30:06;;;;;;;4.73;4.00;;;28.30;75.60;;;;;;5053421;28;20438;-75
2021/06/16 08:32:35;;;;;;;4.60;4.10;;;28.50;75.10;;;;;;5053064;28;20539;-76
2021/06/16 08:35:02;;;;;;;4.60;4.20;;;28.80;73.70;;;;;;5053318;28;20477;-76
2021/06/16 08:37:29;;;;;;;4.63;3.67;;;29.10;73.00;;;;;;5053455;28;20533;-76
2021/06/16 08:39:56;;;;;;;4.60;4.20;;;29.50;69.40;;;;;;5053102;28;21066;-76
2021/06/16 08:42:22;;;;;;;4.80;4.10;;;30.00;69.40;;;;;;5053671;28;20793;-76
2021/06/16 08:44:54;;;;;;;4.63;3.97;;;30.30;67.00;;;;;;5052962;28;20472;-76
2021/06/16 08:47:21;;;;;;;4.17;3.73;;;30.60;64.50;;;;;;5053312;28;20438;-76
2021/06/16 08:49:50;;;;;;;3.77;3.40;;;30.80;64.60;;;;;;5053065;28;20443;-74
2021/06/16 08:52:18;;;;;;;4.30;3.80;;;31.30;62.20;;;;;;5053433;28;20445;-76
2021/06/16 08:54:45;;;;;;;5.60;4.13;;;31.90;59.50;;;;;;5053356;28;20549;-76
2021/06/16 08:57:12;;;;;;;4.43;4.03;;;32.50;57.40;;;;;;5053467;28;20991;-77
2021/06/16 08:59:39;;;;;;;4.10;3.70;;;32.80;55.60;;;;;;5052781;28;20568;-76
2021/06/16 09:02:06;;;;;;;4.03;3.70;;;33.90;56.30;;;;;;5052805;28;20438;-76
2021/06/16 09:04:43;;;;;;;3.60;3.20;;;35.20;54.80;;;;;;5053052;28;20557;-77
2021/06/16 09:07:15;;;;;;;4.10;3.80;;;36.40;52.20;;;;;;5053343;28;20446;-77
2021/06/16 09:09:42;;;;;;;3.70;3.40;;;37.40;47.50;;;;;;5053481;28;20442;-77
2021/06/16 09:12:18;;;;;;;3.57;3.27;;;38.10;44.30;;;;;;5053300;28;20533;-77
2021/06/16 09:14:55;;;;;;;3.10;2.90;;;39.30;40.70;;;;;;5056342;28;20465;-77
2021/06/16 09:17:23;;;;;;;3.97;3.57;;;39.90;39.70;;;;;;5056975;28;20450;-77
2021/06/16 09:19:55;;;;;;;3.93;3.63;;;40.50;38.90;;;;;;5056287;28;20895;-78
2021/06/16 09:22:31;;;;;;;4.17;3.77;;;40.30;37.60;;;;;;5057057;28;20520;-77
2021/06/16 09:25:00;;;;;;;5.80;3.60;;;40.60;36.00;;;;;;5056400;28;20959;-77
2021/06/16 09:27:42;;;;;;;4.33;3.50;;;39.70;36.20;;;;;;5056512;28;20540;-77
2021/06/16 09:30:42;;;;;;;3.83;3.53;;;38.90;38.50;;;;;;5056446;28;20916;-77
2021/06/16 09:33:15;;;;;;;3.80;3.50;;;39.50;38.50;;;;;;5056417;28;20442;-77
2021/06/16 09:35:44;;;;;;;3.70;3.43;;;39.50;37.30;;;;;;5056629;28;20452;-77
2021/06/16 09:38:23;;;;;;;3.80;3.50;;;40.60;35.60;;;;;;5056583;28;20528;-74
2021/06/16 09:40:51;;;;;;;3.83;3.50;;;40.30;34.80;;;;;;5056100;28;20450;-75
2021/06/16 09:43:19;;;;;;;5.53;3.40;;;40.90;35.20;;;;;;5056487;28;20879;-75
2021/06/16 09:45:52;;;;;;;3.33;3.07;;;41.20;34.20;;;;;;5056233;28;20788;-75
2021/06/16 09:48:28;;;;;;;3.43;3.17;;;41.00;34.90;;;;;;5056165;28;20785;-74
2021/06/16 09:51:10;;;;;;;3.60;3.30;;;41.20;35.60;;;;;;5055882;28;20442;-75
2021/06/16 09:54:01;;;;;;;3.47;3.17;;;41.40;33.30;;;;;;5055659;28;20473;-75
2021/06/16 09:56:32;;;;;;;3.63;3.30;;;41.60;32.40;;;;;;5055892;28;20450;-75
2021/06/16 09:58:59;;;;;;;5.40;3.57;;;41.80;31.80;;;;;;5056234;28;20489;-75
2021/06/16 10:01:44;;;;;;;3.60;3.30;;;41.40;32.00;;;;;;5056010;28;20520;-75
2021/06/16 10:04:11;;;;;;;3.30;3.00;;;42.50;33.10;;;;;;5056234;28;20461;-75
2021/06/16 10:06:38;;;;;;;2.63;2.47;;;43.50;31.80;;;;;;5055621;28;20967;-75
2021/06/16 10:09:09;;;;;;;4.00;3.70;;;44.20;31.80;;;;;;5055924;28;20469;-75
2021/06/16 10:11:36;;;;;;;3.47;3.17;;;44.20;29.20;;;;;;5055809;28;20537;-75
2021/06/16 10:14:03;;;;;;;3.67;3.37;;;43.80;29.40;;;;;;5055857;28;21011;-75
2021/06/16 10:16:30;;;;;;;3.30;3.10;;;44.20;30.00;;;;;;5055979;28;20485;-75
2021/06/16 10:18:57;;;;;;;3.60;3.23;;;44.20;29.60;;;;;;5055527;28;20517;-75
2021/06/16 10:21:24;;;;;;;3.17;2.97;;;43.80;28.30;;;;;;5055487;28;20464;-75
2021/06/16 10:23:51;;;;;;;3.00;2.80;;;43.50;29.00;;;;;;5055267;28;20466;-75
2021/06/16 10:26:25;;;;;;;4.30;3.30;;;43.00;28.60;;;;;;5054444;28;20545;-75
2021/06/16 10:28:57;;;;;;;2.73;2.60;;;42.50;29.50;;;;;;5055768;28;20972;-75
2021/06/16 10:31:32;;;;;;;3.60;3.30;;;42.50;30.00;;;;;;5054894;28;20943;-75
2021/06/16 10:33:59;;;;;;;3.70;3.50;;;42.00;29.40;;;;;;5055251;28;20473;-75
2021/06/16 10:36:26;;;;;;;3.03;2.83;;;40.80;30.70;;;;;;5055472;28;20441;-75
2021/06/16 10:39:14;;;;;;;3.30;3.00;;;40.00;33.60;;;;;;5055314;28;20445;-75
2021/06/16 10:41:56;;;;;;;4.33;3.93;;;39.00;32.40;;;;;;5050370;28;20478;-74
2021/06/16 10:44:25;;;;;;;3.67;3.37;;;38.10;34.40;;;;;;5055325;28;20468;-77
2021/06/16 10:46:54;;;;;;;3.37;3.10;;;37.20;36.00;;;;;;5055279;28;20441;-77
2021/06/16 10:49:53;;;;;;;3.50;3.20;;;36.40;34.90;;;;;;5055151;28;20438;-77
2021/06/16 10:52:22;;;;;;;3.87;3.57;;;35.50;38.70;;;;;;5054978;28;20450;-77
2021/06/16 10:54:58;;;;;;;3.80;3.50;;;34.90;39.60;;;;;;5055128;28;20466;-77
2021/06/16 10:57:27;;;;;;;3.30;3.10;;;34.60;39.40;;;;;;5054957;28;20441;-77
2021/06/16 11:00:10;;;;;;;4.10;3.70;;;34.10;40.90;;;;;;5054834;28;20478;-77
2021/06/16 11:03:01;;;;;;;3.87;3.47;;;33.90;40.80;;;;;;5055168;28;20442;-77
2021/06/16 11:05:41;;;;;;;4.53;4.13;;;33.40;40.40;;;;;;5054727;28;20472;-77
2021/06/16 11:08:14;;;;;;;3.97;3.57;;;33.30;43.10;;;;;;5055014;28;20936;-77
2021/06/16 11:10:57;;;;;;;4.80;4.30;;;33.10;44.00;;;;;;5054445;28;20940;-77
2021/06/16 11:13:42;;;;;;;3.60;3.13;;;33.20;43.20;;;;;;5052469;28;20568;-76
2021/06/16 11:16:54;;;;;;;3.90;3.50;;;33.10;44.00;;;;;;5054954;28;20808;-77
2021/06/16 11:19:27;;;;;;;3.77;3.33;;;33.00;42.20;;;;;;5054341;28;20485;-77
2021/06/16 11:21:55;;;;;;;4.53;4.13;;;33.00;42.80;;;;;;5053925;28;20456;-76
2021/06/16 11:24:22;;;;;;;4.10;3.70;;;33.00;44.40;;;;;;5054311;28;20899;-76
2021/06/16 11:26:51;;;;;;;4.17;3.77;;;33.10;42.40;;;;;;5054609;28;20483;-76
2021/06/16 11:29:55;;;;;;;3.43;3.23;;;33.20;43.90;;;;;;5054615;28;20536;-77
2021/06/16 11:32:23;;;;;;;3.53;3.23;;;33.40;44.60;;;;;;5054250;28;20491;-77
2021/06/16 11:34:51;;;;;;;3.90;3.60;;;33.50;42.70;;;;;;5054501;28;20545;-77
2021/06/16 11:37:56;;;;;;;3.90;3.60;;;33.40;43.00;;;;;;5054175;28;20532;-76
2021/06/16 11:40:23;;;;;;;3.70;3.40;;;33.50;42.80;;;;;;5053844;28;20481;-76
2021/06/16 11:42:50;;;;;;;3.63;3.40;;;33.50;43.20;;;;;;5054179;28;20478;-76
2021/06/16 11:45:17;;;;;;;3.77;3.53;;;33.60;42.50;;;;;;5054398;28;20536;-76
2021/06/16 11:47:53;;;;;;;3.90;3.60;;;33.70;41.90;;;;;;5054274;28;20529;-77
2021/06/16 11:50:26;;;;;;;3.97;3.67;;;33.80;42.90;;;;;;5053970;28;20445;-77
2021/06/16 11:53:00;;;;;;;3.93;3.53;;;33.70;43.00;;;;;;5053529;28;20450;-77
2021/06/16 11:55:40;;;;;;;4.20;3.70;;;33.50;44.40;;;;;;5054197;28;20442;-76
2021/06/16 11:58:21;;;;;;;3.77;3.47;;;33.40;44.90;;;;;;5053986;28;20438;-76
2021/06/16 12:00:49;;;;;;;4.10;3.80;;;33.30;44.60;;;;;;5053638;28;20576;-76
2021/06/16 12:03:18;;;;;;;4.00;3.70;;;33.30;44.20;;;;;;5053615;28;20468;-77
2021/06/16 12:05:45;;;;;;;3.90;3.60;;;33.30;44.70;;;;;;5053611;28;20983;-76
2021/06/16 12:08:20;;;;;;;4.37;3.70;;;33.30;43.30;;;;;;5053849;28;20529;-76
2021/06/16 12:10:47;;;;;;;3.90;3.60;;;33.40;43.00;;;;;;5053782;28;20449;-77
2021/06/16 12:13:14;;;;;;;3.90;3.60;;;33.20;43.20;;;;;;5053224;28;20457;-76
2021/06/16 12:15:42;;;;;;;3.80;3.50;;;33.00;43.40;;;;;;5053343;28;20528;-76
2021/06/16 12:18:11;;;;;;;3.67;3.37;;;32.90;44.80;;;;;;5053623;28;20445;-77
2021/06/16 12:20:41;;;;;;;4.23;3.80;;;32.90;46.00;;;;;;5053044;28;21036;-76
2021/06/16 12:23:24;;;;;;;4.93;3.50;;;33.00;45.90;;;;;;5053802;28;20541;-76
2021/06/16 12:25:52;;;;;;;4.33;3.77;;;33.10;43.60;;;;;;5053913;28;20959;-76
2021/06/16 12:28:19;;;;;;;3.40;3.10;;;33.20;42.70;;;;;;5053529;28;20532;-76
2021/06/16 12:30:46;;;;;;;3.80;3.50;;;33.20;42.70;;;;;;5053186;28;20864;-76
2021/06/16 12:33:17;;;;;;;3.73;3.43;;;33.30;42.70;;;;;;5053621;28;20466;-77
2021/06/16 12:36:06;;;;;;;3.90;3.60;;;33.40;43.10;;;;;;5053735;28;20433;-77
2021/06/16 12:38:37;;;;;;;4.10;3.80;;;33.40;44.10;;;;;;5053887;28;20477;-76
2021/06/16 12:41:25;;;;;;;3.67;3.37;;;33.50;44.40;;;;;;5053189;28;20481;-77
2021/06/16 12:43:53;;;;;;;3.73;3.43;;;33.50;45.40;;;;;;5053116;28;20473;-77
2021/06/16 12:46:20;;;;;;;3.90;3.50;;;33.50;43.30;;;;;;5053632;28;20452;-77
2021/06/16 12:48:47;;;;;;;3.97;3.60;;;33.50;42.40;;;;;;5055535;28;20442;-76
2021/06/16 12:51:15;;;;;;;4.00;3.70;;;33.50;43.80;;;;;;5057003;28;20536;-77
2021/06/16 12:53:44;;;;;;;3.70;3.40;;;33.60;43.10;;;;;;5057779;28;20556;-77
2021/06/16 12:56:12;;;;;;;3.73;3.43;;;33.50;43.10;;;;;;5057147;28;20453;-76
2021/06/16 12:58:46;;;;;;;3.73;3.43;;;33.40;42.40;;;;;;5057147;28;20478;-77
2021/06/16 13:01:18;;;;;;;3.77;3.47;;;33.20;44.60;;;;;;5056724;28;20481;-77